Time;durP1;ratioP1;P1;durP2;ratioP2;P2;SDS_P1;SDS_P2;PMS_P1;PMS_P2;Temp;Humidity;BMP_temperature;BMP_pressure;BME280_temperature;BME280_humidity;BME280_pressure;Samples;Min_cycle;Max_cycle;Signal;HPM_P1;HPM_P2
2021/08/07 00:00:02;;;;;;;5.30;4.80;;;;;;;;;;2094838;28;20173;-56
2021/08/07 00:01:13;;;;;;;5.75;5.10;;;;;;;;;;2088246;28;20203;-57
2021/08/07 00:02:13;;;;;;;7.88;5.05;;;;;;;;;;2083759;28;20237;-58
2021/08/07 00:03:14;;;;;;;5.47;4.97;;;;;;;;;;2089257;28;20174;-54
2021/08/07 00:04:15;;;;;;;4.95;4.53;;;;;;;;;;2093732;28;20164;-56
2021/08/07 00:05:15;;;;;;;5.75;5.25;;;;;;;;;;2092226;28;20171;-53
2021/08/07 00:06:15;;;;;;;5.40;4.93;;;;;;;;;;2084688;28;20191;-57
2021/08/07 00:07:15;;;;;;;6.05;5.53;;;;;;;;;;2083712;28;20163;-56
2021/08/07 00:08:16;;;;;;;5.40;4.88;;;;;;;;;;2097892;28;20844;-56
2021/08/07 00:09:16;;;;;;;5.85;5.28;;;;;;;;;;2092917;28;20179;-57
2021/08/07 00:10:17;;;;;;;5.50;5.07;;;;;;;;;;2093679;28;20585;-56
2021/08/07 00:11:18;;;;;;;5.30;4.78;;;;;;;;;;2090891;28;20175;-52
2021/08/07 00:12:19;;;;;;;5.47;4.97;;;;;;;;;;2089568;28;20211;-53
2021/08/07 00:13:19;;;;;;;5.65;5.20;;;;;;;;;;2091316;28;20197;-51
2021/08/07 00:14:19;;;;;;;5.80;5.30;;;;;;;;;;2092996;28;20178;-53
2021/08/07 00:15:19;;;;;;;5.20;4.80;;;;;;;;;;2094170;28;20191;-51
2021/08/07 00:16:20;;;;;;;5.78;4.90;;;;;;;;;;2094411;28;20220;-54
2021/08/07 00:17:20;;;;;;;7.20;5.22;;;;;;;;;;2081259;28;20172;-54
2021/08/07 00:18:20;;;;;;;5.65;4.90;;;;;;;;;;2090651;28;20170;-51
2021/08/07 00:19:20;;;;;;;5.25;4.85;;;;;;;;;;2093061;28;20179;-52
2021/08/07 00:20:21;;;;;;;6.00;4.85;;;;;;;;;;2094369;28;20170;-53
2021/08/07 00:21:21;;;;;;;5.40;4.75;;;;;;;;;;2092974;28;20742;-57
2021/08/07 00:22:22;;;;;;;4.90;4.55;;;;;;;;;;2088265;28;20176;-58
2021/08/07 00:23:22;;;;;;;5.40;4.90;;;;;;;;;;2085606;28;20183;-58
2021/08/07 00:24:22;;;;;;;5.05;4.75;;;;;;;;;;2083185;28;20168;-53
2021/08/07 00:25:23;;;;;;;4.95;4.47;;;;;;;;;;2094020;28;20699;-52
2021/08/07 00:26:23;;;;;;;5.22;4.72;;;;;;;;;;2091272;28;20250;-54
2021/08/07 00:27:23;;;;;;;5.45;4.95;;;;;;;;;;2087680;28;20209;-56
2021/08/07 00:28:23;;;;;;;5.18;4.68;;;;;;;;;;2085409;28;20175;-57
2021/08/07 00:29:24;;;;;;;5.03;4.63;;;;;;;;;;2074330;28;20177;-55
2021/08/07 00:30:24;;;;;;;7.78;4.82;;;;;;;;;;2082731;28;20258;-57
2021/08/07 00:31:24;;;;;;;4.57;4.28;;;;;;;;;;2089982;28;20312;-53
2021/08/07 00:32:24;;;;;;;4.80;4.38;;;;;;;;;;2092088;28;20207;-57
2021/08/07 00:33:25;;;;;;;4.88;4.47;;;;;;;;;;2085822;28;20172;-56
2021/08/07 00:34:26;;;;;;;4.68;4.38;;;;;;;;;;2082444;28;20173;-55
2021/08/07 00:35:26;;;;;;;5.45;4.60;;;;;;;;;;2082156;28;20217;-52
2021/08/07 00:36:28;;;;;;;4.97;4.63;;;;;;;;;;2074027;28;20267;-55
2021/08/07 00:37:29;;;;;;;4.90;4.50;;;;;;;;;;2075072;28;20172;-55
2021/08/07 00:38:33;;;;;;;4.78;4.32;;;;;;;;;;2079441;28;20161;-58
2021/08/07 00:39:35;;;;;;;4.22;3.92;;;;;;;;;;2073003;28;20165;-52
2021/08/07 00:40:39;;;;;;;4.95;4.10;;;;;;;;;;2082871;28;20585;-56
2021/08/07 00:41:39;;;;;;;4.80;4.05;;;;;;;;;;2073716;28;20169;-57
2021/08/07 00:42:40;;;;;;;4.82;4.40;;;;;;;;;;2079190;28;20176;-56
2021/08/07 00:43:47;;;;;;;5.22;4.20;;;;;;;;;;2072037;28;20185;-56
2021/08/07 00:44:57;;;;;;;4.90;4.50;;;;;;;;;;2078549;28;20172;-56
2021/08/07 00:45:57;;;;;;;4.70;4.40;;;;;;;;;;2075769;28;20661;-56
2021/08/07 00:47:02;;;;;;;4.95;4.47;;;;;;;;;;2074892;28;20219;-57
2021/08/07 00:48:05;;;;;;;5.05;4.65;;;;;;;;;;2077964;28;20608;-56
2021/08/07 00:49:16;;;;;;;4.80;4.40;;;;;;;;;;2078422;28;20187;-58
2021/08/07 00:50:20;;;;;;;5.07;4.57;;;;;;;;;;2077483;28;20204;-58
2021/08/07 00:51:22;;;;;;;5.20;4.05;;;;;;;;;;2072257;28;20174;-58
2021/08/07 00:52:25;;;;;;;4.43;3.83;;;;;;;;;;2075049;28;20196;-58
2021/08/07 00:53:28;;;;;;;5.00;4.50;;;;;;;;;;2082296;28;20224;-58
2021/08/07 00:54:40;;;;;;;5.13;4.43;;;;;;;;;;2080583;28;20264;-58
2021/08/07 00:55:44;;;;;;;5.55;3.97;;;;;;;;;;2073174;28;20319;-56
2021/08/07 00:56:44;;;;;;;4.30;4.00;;;;;;;;;;2070997;28;20256;-56
2021/08/07 00:57:50;;;;;;;4.18;3.97;;;;;;;;;;2072471;28;20697;-58
2021/08/07 00:58:54;;;;;;;5.07;4.40;;;;;;;;;;2078980;28;20173;-58
2021/08/07 00:59:56;;;;;;;5.43;4.18;;;;;;;;;;2073766;28;20172;-58
2021/08/07 01:00:57;;;;;;;4.10;3.80;;;;;;;;;;2074721;28;20193;-58
2021/08/07 01:02:03;;;;;;;4.82;4.25;;;;;;;;;;2083186;28;20176;-56
2021/08/07 01:03:32;;;;;;;4.03;3.72;;;;;;;;;;2079640;28;20200;-57
2021/08/07 01:04:48;;;;;;;5.85;4.35;;;;;;;;;;2084856;28;20640;-57
2021/08/07 01:05:59;;;;;;;4.78;3.88;;;;;;;;;;2083236;28;20195;-55
2021/08/07 01:07:04;;;;;;;4.30;3.90;;;;;;;;;;2077378;28;20168;-58
2021/08/07 01:08:14;;;;;;;3.92;3.63;;;;;;;;;;2079877;28;20180;-59
2021/08/07 01:09:25;;;;;;;4.38;3.97;;;;;;;;;;2078398;28;20187;-58
2021/08/07 01:10:32;;;;;;;4.80;4.13;;;;;;;;;;2078394;28;20172;-56
2021/08/07 01:11:43;;;;;;;7.35;3.85;;;;;;;;;;2074394;28;20179;-56
2021/08/07 01:12:54;;;;;;;4.18;3.88;;;;;;;;;;2073600;28;20223;-58
2021/08/07 01:13:58;;;;;;;4.30;3.60;;;;;;;;;;2080531;28;20173;-58
2021/08/07 01:15:01;;;;;;;4.07;3.78;;;;;;;;;;2075745;28;20169;-55
2021/08/07 01:16:09;;;;;;;3.92;3.60;;;;;;;;;;2078782;28;20212;-58
2021/08/07 01:17:14;;;;;;;4.00;3.70;;;;;;;;;;2074794;28;20651;-58
2021/08/07 01:18:18;;;;;;;3.97;3.60;;;;;;;;;;2078751;28;20172;-58
2021/08/07 01:19:21;;;;;;;4.25;3.90;;;;;;;;;;2074821;28;20180;-58
2021/08/07 01:20:36;;;;;;;4.13;3.45;;;;;;;;;;2071746;28;20176;-58
2021/08/07 01:21:40;;;;;;;5.55;3.53;;;;;;;;;;2063541;28;20182;-58
2021/08/07 01:23:01;;;;;;;3.50;3.22;;;;;;;;;;2073784;28;20262;-58
2021/08/07 01:24:07;;;;;;;5.40;3.45;;;;;;;;;;2068637;28;20264;-58
2021/08/07 01:25:15;;;;;;;4.07;3.78;;;;;;;;;;2078273;28;20177;-53
2021/08/07 01:26:18;;;;;;;4.30;3.33;;;;;;;;;;2073576;28;20180;-57
2021/08/07 01:27:27;;;;;;;5.93;4.15;;;;;;;;;;2084593;28;20230;-54
2021/08/07 01:28:38;;;;;;;4.07;3.53;;;;;;;;;;2079244;28;20173;-57
2021/08/07 01:29:39;;;;;;;4.60;3.90;;;;;;;;;;2073315;28;20169;-52
2021/08/07 01:30:40;;;;;;;5.22;3.55;;;;;;;;;;2081413;28;20165;-58
2021/08/07 01:31:46;;;;;;;4.63;3.45;;;;;;;;;;2080032;28;20180;-56
2021/08/07 01:32:48;;;;;;;3.90;3.50;;;;;;;;;;2065926;28;20189;-58
2021/08/07 01:33:50;;;;;;;3.70;3.42;;;;;;;;;;2084760;28;20684;-56
2021/08/07 01:34:58;;;;;;;5.57;3.58;;;;;;;;;;2088388;28;20176;-56
2021/08/07 01:36:00;;;;;;;3.53;3.22;;;;;;;;;;2079835;28;20184;-53
2021/08/07 01:37:04;;;;;;;4.10;3.80;;;;;;;;;;2072150;28;20271;-58
2021/08/07 01:38:18;;;;;;;4.40;4.00;;;;;;;;;;2078130;28;20173;-56
2021/08/07 01:39:32;;;;;;;4.32;3.85;;;;;;;;;;2072182;28;20172;-57
2021/08/07 01:40:34;;;;;;;8.00;3.85;;;;;;;;;;2066235;28;20165;-58
2021/08/07 01:41:45;;;;;;;4.88;3.55;;;;;;;;;;2082711;28;20180;-58
2021/08/07 01:42:54;;;;;;;3.50;3.17;;;;;;;;;;2076259;28;20184;-57
2021/08/07 01:43:58;;;;;;;3.38;3.17;;;;;;;;;;2078962;28;20173;-58
2021/08/07 01:44:59;;;;;;;3.88;3.55;;;;;;;;;;2071702;28;20187;-58
2021/08/07 01:46:02;;;;;;;4.10;3.70;;;;;;;;;;2067122;28;20603;-58
2021/08/07 01:47:28;;;;;;;6.15;3.55;;;;;;;;;;2080216;28;20168;-57
2021/08/07 01:48:33;;;;;;;4.43;4.10;;;;;;;;;;2080914;28;20168;-57
2021/08/07 01:49:56;;;;;;;4.57;3.90;;;;;;;;;;2086447;28;20160;-58
2021/08/07 01:51:09;;;;;;;3.70;3.40;;;;;;;;;;2075987;28;20162;-58
2021/08/07 01:52:15;;;;;;;4.82;4.28;;;;;;;;;;2076165;28;20195;-58
2021/08/07 01:53:32;;;;;;;4.25;3.92;;;;;;;;;;2077220;28;20227;-56
2021/08/07 01:54:44;;;;;;;4.28;3.70;;;;;;;;;;2081799;28;20173;-56
2021/08/07 01:55:48;;;;;;;4.20;3.80;;;;;;;;;;2081015;28;20224;-58
2021/08/07 01:56:50;;;;;;;4.30;3.90;;;;;;;;;;2074862;28;20177;-57
2021/08/07 01:58:03;;;;;;;4.63;3.70;;;;;;;;;;2076175;28;20565;-57
2021/08/07 01:59:06;;;;;;;5.32;4.03;;;;;;;;;;2077972;28;20189;-59
2021/08/07 02:00:12;;;;;;;4.22;3.70;;;;;;;;;;2079692;28;20171;-58
2021/08/07 02:01:17;;;;;;;4.53;4.07;;;;;;;;;;2082801;28;20183;-58
2021/08/07 02:02:18;;;;;;;5.95;3.88;;;;;;;;;;2084777;28;20202;-59
2021/08/07 02:03:25;;;;;;;3.92;3.55;;;;;;;;;;2087578;28;20164;-58
2021/08/07 02:04:26;;;;;;;4.22;3.90;;;;;;;;;;2083691;28;20699;-57
2021/08/07 02:05:36;;;;;;;4.35;3.95;;;;;;;;;;2081811;28;20723;-59
2021/08/07 02:06:39;;;;;;;3.70;3.50;;;;;;;;;;2072583;28;20173;-58
2021/08/07 02:07:39;;;;;;;4.00;3.70;;;;;;;;;;2073986;28;20216;-58
2021/08/07 02:08:41;;;;;;;4.35;3.92;;;;;;;;;;2070368;28;20220;-58
2021/08/07 02:09:46;;;;;;;4.20;3.80;;;;;;;;;;2072804;28;20177;-59
2021/08/07 02:10:47;;;;;;;3.72;3.40;;;;;;;;;;2080615;28;20259;-58
2021/08/07 02:11:48;;;;;;;3.95;3.63;;;;;;;;;;2078707;28;20179;-58
2021/08/07 02:12:48;;;;;;;4.40;4.10;;;;;;;;;;2076922;28;20222;-56
2021/08/07 02:13:53;;;;;;;4.57;4.15;;;;;;;;;;2088377;28;20167;-58
2021/08/07 02:14:58;;;;;;;4.82;4.43;;;;;;;;;;2081962;28;20181;-58
2021/08/07 02:16:00;;;;;;;4.03;3.72;;;;;;;;;;2079687;28;20215;-58
2021/08/07 02:17:04;;;;;;;4.72;4.00;;;;;;;;;;2072144;28;20590;-58
2021/08/07 02:18:04;;;;;;;4.88;4.18;;;;;;;;;;2079165;28;20176;-59
2021/08/07 02:19:06;;;;;;;4.78;3.80;;;;;;;;;;2083455;28;20266;-58
2021/08/07 02:20:13;;;;;;;6.80;4.07;;;;;;;;;;2076383;28;20184;-58
2021/08/07 02:21:14;;;;;;;4.28;3.97;;;;;;;;;;2075597;28;20672;-58
2021/08/07 02:22:17;;;;;;;5.20;3.70;;;;;;;;;;2076958;28;20177;-58
2021/08/07 02:23:18;;;;;;;3.90;3.70;;;;;;;;;;2073468;28;20173;-58
2021/08/07 02:24:22;;;;;;;3.95;3.63;;;;;;;;;;2072040;28;20173;-58
2021/08/07 02:25:24;;;;;;;4.30;4.00;;;;;;;;;;2067756;28;20208;-58
2021/08/07 02:26:40;;;;;;;5.05;3.88;;;;;;;;;;2082177;28;20168;-58
2021/08/07 02:27:41;;;;;;;4.38;4.07;;;;;;;;;;2072064;28;20598;-58
2021/08/07 02:28:42;;;;;;;3.58;3.22;;;;;;;;;;2071679;28;20176;-57
2021/08/07 02:29:46;;;;;;;3.78;3.47;;;;;;;;;;2066249;28;20212;-57
2021/08/07 02:30:47;;;;;;;4.28;3.88;;;;;;;;;;2080766;28;20282;-59
2021/08/07 02:31:50;;;;;;;4.43;4.13;;;;;;;;;;2079000;28;20180;-60
2021/08/07 02:32:52;;;;;;;3.83;3.53;;;;;;;;;;2081913;28;20172;-58
2021/08/07 02:33:55;;;;;;;4.22;3.92;;;;;;;;;;2068634;28;20173;-58
2021/08/07 02:34:55;;;;;;;4.00;3.70;;;;;;;;;;2077563;28;20636;-58
2021/08/07 02:36:03;;;;;;;4.38;3.97;;;;;;;;;;2071513;28;20189;-59
2021/08/07 02:37:04;;;;;;;4.28;3.97;;;;;;;;;;2067597;28;20208;-58
2021/08/07 02:38:08;;;;;;;4.40;4.10;;;;;;;;;;2076511;28;20705;-55
2021/08/07 02:39:09;;;;;;;5.05;3.47;;;;;;;;;;2073569;28;20184;-58
2021/08/07 02:40:12;;;;;;;4.35;3.65;;;;;;;;;;2074285;28;20199;-55
2021/08/07 02:41:20;;;;;;;3.70;3.50;;;;;;;;;;2075690;28;20188;-57
2021/08/07 02:42:22;;;;;;;4.07;3.70;;;;;;;;;;2083548;28;20180;-53
2021/08/07 02:43:23;;;;;;;4.00;3.65;;;;;;;;;;2073368;28;20168;-58
2021/08/07 02:44:24;;;;;;;3.85;3.63;;;;;;;;;;2078164;28;20240;-56
2021/08/07 02:45:25;;;;;;;4.18;3.97;;;;;;;;;;2083813;28;20810;-53
2021/08/07 02:46:26;;;;;;;5.32;4.00;;;;;;;;;;2075170;28;20208;-50
2021/08/07 02:47:30;;;;;;;4.32;3.97;;;;;;;;;;2078341;28;20614;-56
2021/08/07 02:48:35;;;;;;;4.05;3.75;;;;;;;;;;2080815;28;20192;-58
2021/08/07 02:49:36;;;;;;;4.20;3.78;;;;;;;;;;2080335;28;20184;-52
2021/08/07 02:50:38;;;;;;;4.72;3.83;;;;;;;;;;2073395;28;20177;-54
2021/08/07 02:51:40;;;;;;;4.45;4.10;;;;;;;;;;2072058;28;20191;-53
2021/08/07 02:52:43;;;;;;;4.85;4.15;;;;;;;;;;2066817;28;20169;-54
2021/08/07 02:53:48;;;;;;;4.68;4.28;;;;;;;;;;2084535;28;20181;-57
2021/08/07 02:54:51;;;;;;;9.10;4.30;;;;;;;;;;2081505;28;20180;-53
2021/08/07 02:55:51;;;;;;;4.40;3.95;;;;;;;;;;2087473;28;20267;-54
2021/08/07 02:56:59;;;;;;;4.50;4.15;;;;;;;;;;2076736;28;20271;-52
2021/08/07 02:58:01;;;;;;;4.70;4.30;;;;;;;;;;2070984;28;20276;-55
2021/08/07 02:59:05;;;;;;;5.65;3.80;;;;;;;;;;2087466;28;20290;-55
2021/08/07 03:00:09;;;;;;;4.90;4.32;;;;;;;;;;2080105;28;20718;-57
2021/08/07 03:01:12;;;;;;;4.97;4.47;;;;;;;;;;2076488;28;20177;-54
2021/08/07 03:02:16;;;;;;;4.97;4.40;;;;;;;;;;2073813;28;20181;-56
2021/08/07 03:03:20;;;;;;;5.05;4.55;;;;;;;;;;2077655;28;20168;-52
2021/08/07 03:04:21;;;;;;;5.38;4.88;;;;;;;;;;2079101;28;20180;-57
2021/08/07 03:05:24;;;;;;;4.68;4.32;;;;;;;;;;2075377;28;20177;-56
2021/08/07 03:06:28;;;;;;;5.15;4.78;;;;;;;;;;2078665;28;20668;-54
2021/08/07 03:07:30;;;;;;;7.18;4.72;;;;;;;;;;2082881;28;20296;-54
2021/08/07 03:08:30;;;;;;;5.40;4.88;;;;;;;;;;2086275;28;20188;-57
2021/08/07 03:09:30;;;;;;;6.13;4.50;;;;;;;;;;2073804;28;20177;-56
2021/08/07 03:10:30;;;;;;;5.35;4.85;;;;;;;;;;2081289;28;20180;-56
2021/08/07 03:11:31;;;;;;;4.50;4.20;;;;;;;;;;2079148;28;20172;-54
2021/08/07 03:12:37;;;;;;;4.57;4.28;;;;;;;;;;2072395;28;20169;-55
2021/08/07 03:13:37;;;;;;;5.68;5.10;;;;;;;;;;2073443;28;20176;-55
2021/08/07 03:14:38;;;;;;;4.70;4.40;;;;;;;;;;2082087;28;20184;-53
2021/08/07 03:15:38;;;;;;;5.13;4.80;;;;;;;;;;2080119;28;20568;-54
2021/08/07 03:16:39;;;;;;;5.43;5.03;;;;;;;;;;2075274;28;20542;-55
2021/08/07 03:17:43;;;;;;;5.43;4.82;;;;;;;;;;2072350;28;20203;-54
2021/08/07 03:18:44;;;;;;;5.22;4.72;;;;;;;;;;2072126;28;20696;-54
2021/08/07 03:19:45;;;;;;;5.40;4.78;;;;;;;;;;2080308;28;20187;-54
2021/08/07 03:20:45;;;;;;;5.65;5.28;;;;;;;;;;2079592;28;20188;-54
2021/08/07 03:21:47;;;;;;;6.20;4.40;;;;;;;;;;2080232;28;20230;-53
2021/08/07 03:22:47;;;;;;;5.65;4.60;;;;;;;;;;2080745;28;20594;-57
2021/08/07 03:23:48;;;;;;;4.60;4.28;;;;;;;;;;2071827;28;20716;-55
2021/08/07 03:24:49;;;;;;;4.82;4.18;;;;;;;;;;2072705;28;20542;-58
2021/08/07 03:25:50;;;;;;;5.07;4.68;;;;;;;;;;2083493;28;20204;-55
2021/08/07 03:26:54;;;;;;;4.82;4.43;;;;;;;;;;2079823;28;20179;-54
2021/08/07 03:27:56;;;;;;;6.03;4.80;;;;;;;;;;2065903;28;20181;-56
2021/08/07 03:28:57;;;;;;;4.63;4.22;;;;;;;;;;2074249;28;20182;-57
2021/08/07 03:29:58;;;;;;;4.80;4.40;;;;;;;;;;2083382;28;20594;-58
2021/08/07 03:31:00;;;;;;;4.75;4.30;;;;;;;;;;2072861;28;20184;-53
2021/08/07 03:32:05;;;;;;;5.05;4.53;;;;;;;;;;2071345;28;20700;-54
2021/08/07 03:33:12;;;;;;;4.65;4.25;;;;;;;;;;2080025;28;20179;-50
2021/08/07 03:34:13;;;;;;;5.13;4.63;;;;;;;;;;2076175;28;20852;-50
2021/08/07 03:35:15;;;;;;;5.53;5.03;;;;;;;;;;2075665;28;20760;-58
2021/08/07 03:36:19;;;;;;;5.07;4.57;;;;;;;;;;2077670;28;20190;-58
2021/08/07 03:37:25;;;;;;;4.88;4.45;;;;;;;;;;2084293;28;20165;-58
2021/08/07 03:38:33;;;;;;;4.32;4.00;;;;;;;;;;2080029;28;20176;-59
2021/08/07 03:39:33;;;;;;;4.75;4.45;;;;;;;;;;2077761;28;20175;-57
2021/08/07 03:40:33;;;;;;;5.00;4.63;;;;;;;;;;2078699;28;20587;-59
2021/08/07 03:41:38;;;;;;;4.80;4.40;;;;;;;;;;2073081;28;20188;-58
2021/08/07 03:42:42;;;;;;;5.22;4.72;;;;;;;;;;2077309;28;20164;-58
2021/08/07 03:43:47;;;;;;;4.80;4.35;;;;;;;;;;2065265;28;20170;-58
2021/08/07 03:44:50;;;;;;;4.72;4.30;;;;;;;;;;2079641;28;20184;-58
2021/08/07 03:45:50;;;;;;;5.40;4.90;;;;;;;;;;2077500;28;20209;-57
2021/08/07 03:46:51;;;;;;;6.82;4.65;;;;;;;;;;2080215;28;20252;-58
2021/08/07 03:47:52;;;;;;;4.68;4.28;;;;;;;;;;2064547;28;20205;-58
2021/08/07 03:48:55;;;;;;;4.45;4.13;;;;;;;;;;2071500;28;20208;-58
2021/08/07 03:49:58;;;;;;;4.50;4.10;;;;;;;;;;2071696;28;20204;-58
2021/08/07 03:50:59;;;;;;;4.65;4.25;;;;;;;;;;2072368;28;20181;-56
2021/08/07 03:52:08;;;;;;;4.40;3.90;;;;;;;;;;2073072;28;20580;-58
2021/08/07 03:53:09;;;;;;;5.97;4.25;;;;;;;;;;2075543;28;20192;-58
2021/08/07 03:54:10;;;;;;;4.57;4.18;;;;;;;;;;2072686;28;20220;-58
2021/08/07 03:55:10;;;;;;;5.72;4.55;;;;;;;;;;2075616;28;20188;-58
2021/08/07 03:56:11;;;;;;;4.80;4.50;;;;;;;;;;2067004;28;20189;-58
2021/08/07 03:57:13;;;;;;;5.50;4.82;;;;;;;;;;2076244;28;20213;-56
2021/08/07 03:58:14;;;;;;;5.45;4.50;;;;;;;;;;2076267;28;20172;-59
2021/08/07 03:59:49;;;;;;;6.30;5.80;;;;;;;;;;2079412;28;20179;-58
2021/08/07 04:00:49;;;;;;;6.10;5.70;;;;;;;;;;2096729;28;20156;-53
2021/08/07 04:02:00;;;;;;;5.80;5.40;;;;;;;;;;2081865;28;20270;-58
2021/08/07 04:03:00;;;;;;;5.65;5.15;;;;;;;;;;2086975;28;20217;-58
2021/08/07 04:04:01;;;;;;;7.03;6.32;;;;;;;;;;2075120;28;20180;-60
2021/08/07 04:05:08;;;;;;;5.80;5.30;;;;;;;;;;2074371;28;20206;-59
2021/08/07 04:06:08;;;;;;;6.90;5.55;;;;;;;;;;2073722;28;20282;-57
2021/08/07 04:07:10;;;;;;;6.18;5.68;;;;;;;;;;2069643;28;20294;-59
2021/08/07 04:08:20;;;;;;;6.88;5.78;;;;;;;;;;2070864;28;20260;-59
2021/08/07 04:09:21;;;;;;;7.88;6.68;;;;;;;;;;2071976;28;20181;-58
2021/08/07 04:10:22;;;;;;;6.95;6.35;;;;;;;;;;2073257;28;20641;-58
2021/08/07 04:11:22;;;;;;;6.65;6.18;;;;;;;;;;2069389;28;20244;-57
2021/08/07 04:12:30;;;;;;;7.07;6.47;;;;;;;;;;2084280;28;20194;-58
2021/08/07 04:13:30;;;;;;;6.57;6.10;;;;;;;;;;2073853;28;20262;-58
2021/08/07 04:14:38;;;;;;;6.72;6.32;;;;;;;;;;2078028;28;20199;-58
2021/08/07 04:15:39;;;;;;;6.50;6.10;;;;;;;;;;2086209;23;20275;-54
2021/08/07 04:16:41;;;;;;;7.55;6.85;;;;;;;;;;2068293;28;20871;-52
2021/08/07 04:17:48;;;;;;;7.43;6.72;;;;;;;;;;2071133;28;20191;-55
2021/08/07 04:18:49;;;;;;;7.05;6.45;;;;;;;;;;2063244;28;20177;-53
2021/08/07 04:19:50;;;;;;;6.45;5.95;;;;;;;;;;2064362;28;20615;-55
2021/08/07 04:20:59;;;;;;;7.32;6.72;;;;;;;;;;2064827;28;20354;-56
2021/08/07 04:21:59;;;;;;;7.07;6.40;;;;;;;;;;2077423;28;20176;-53
2021/08/07 04:23:03;;;;;;;6.72;6.13;;;;;;;;;;2071976;28;20644;-50
2021/08/07 04:24:08;;;;;;;7.55;6.68;;;;;;;;;;2064684;28;20305;-54
2021/08/07 04:25:11;;;;;;;7.43;6.82;;;;;;;;;;2070419;28;20168;-53
2021/08/07 04:26:14;;;;;;;7.13;6.53;;;;;;;;;;2064228;28;20201;-53
2021/08/07 04:27:17;;;;;;;7.30;6.60;;;;;;;;;;2071878;28;20624;-51
2021/08/07 04:28:20;;;;;;;6.60;6.00;;;;;;;;;;2072503;28;20184;-53
2021/08/07 04:29:24;;;;;;;7.68;6.72;;;;;;;;;;2062494;28;20212;-52
2021/08/07 04:30:29;;;;;;;6.70;6.20;;;;;;;;;;2072551;28;20259;-54
2021/08/07 04:31:32;;;;;;;7.35;6.65;;;;;;;;;;2070323;28;20677;-54
2021/08/07 04:32:34;;;;;;;6.65;6.03;;;;;;;;;;2054795;28;20304;-50
2021/08/07 04:33:40;;;;;;;6.53;6.05;;;;;;;;;;2056116;28;20240;-51
2021/08/07 04:34:43;;;;;;;6.53;6.00;;;;;;;;;;2072152;28;20220;-53
2021/08/07 04:35:47;;;;;;;6.75;6.15;;;;;;;;;;2065929;28;20208;-53
2021/08/07 04:36:54;;;;;;;6.78;6.22;;;;;;;;;;2063318;28;20173;-53
2021/08/07 04:37:57;;;;;;;6.13;5.72;;;;;;;;;;2075494;28;20175;-50
2021/08/07 04:39:05;;;;;;;6.35;5.75;;;;;;;;;;2070259;28;20301;-51
2021/08/07 04:40:05;;;;;;;6.72;6.05;;;;;;;;;;2075309;28;20276;-50
2021/08/07 04:41:06;;;;;;;7.35;6.75;;;;;;;;;;2074339;28;20688;-50
2021/08/07 04:42:10;;;;;;;6.45;5.95;;;;;;;;;;2075743;28;20172;-52
2021/08/07 04:43:10;;;;;;;6.68;6.07;;;;;;;;;;2070476;28;20724;-50
2021/08/07 04:44:11;;;;;;;5.97;5.53;;;;;;;;;;2066033;28;20180;-49
2021/08/07 04:45:14;;;;;;;6.13;5.72;;;;;;;;;;2062449;28;20173;-49
2021/08/07 04:46:16;;;;;;;6.47;5.97;;;;;;;;;;2066652;28;20208;-52
2021/08/07 04:47:17;;;;;;;6.72;5.95;;;;;;;;;;2066494;28;20232;-53
2021/08/07 04:48:17;;;;;;;6.43;5.97;;;;;;;;;;2065521;28;20311;-50
2021/08/07 04:49:31;;;;;;;6.05;5.55;;;;;;;;;;2072380;28;20271;-49
2021/08/07 04:50:34;;;;;;;6.63;6.10;;;;;;;;;;2066583;28;20181;-49
2021/08/07 04:51:36;;;;;;;8.07;5.43;;;;;;;;;;2066787;28;20786;-49
2021/08/07 04:52:38;;;;;;;6.68;6.03;;;;;;;;;;2066377;28;20197;-48
2021/08/07 04:53:38;;;;;;;6.55;6.00;;;;;;;;;;2073566;28;20702;-54
2021/08/07 04:54:46;;;;;;;7.50;5.97;;;;;;;;;;2082895;28;20190;-50
2021/08/07 04:55:48;;;;;;;6.65;5.78;;;;;;;;;;2074035;28;20195;-53
2021/08/07 04:56:49;;;;;;;6.22;5.72;;;;;;;;;;2059768;28;20174;-51
2021/08/07 04:57:50;;;;;;;6.40;5.90;;;;;;;;;;2075652;28;20177;-48
2021/08/07 04:58:50;;;;;;;5.72;5.28;;;;;;;;;;2080935;28;20202;-50
2021/08/07 04:59:56;;;;;;;5.97;5.38;;;;;;;;;;2075885;28;20180;-51
2021/08/07 05:00:56;;;;;;;5.68;5.28;;;;;;;;;;2083501;28;20220;-50
2021/08/07 05:01:56;;;;;;;6.45;5.85;;;;;;;;;;2082823;28;20183;-50
2021/08/07 05:02:57;;;;;;;6.60;6.10;;;;;;;;;;2074908;28;20268;-55
2021/08/07 05:03:57;;;;;;;6.15;5.68;;;;;;;;;;2060854;28;20170;-53
2021/08/07 05:04:58;;;;;;;8.32;7.47;;;;;;;;;;2058361;28;20184;-50
2021/08/07 05:05:58;;;;;;;8.07;7.28;;;;;;;;;;2066153;28;20263;-50
2021/08/07 05:06:58;;;;;;;7.00;6.43;;;;;;;;;;2074738;28;20181;-50
2021/08/07 05:08:00;;;;;;;6.68;6.07;;;;;;;;;;2066333;28;20172;-53
2021/08/07 05:09:03;;;;;;;9.57;8.48;;;;;;;;;;2058140;28;20186;-50
2021/08/07 05:10:09;;;;;;;7.53;6.80;;;;;;;;;;2061861;28;20249;-51
2021/08/07 05:11:10;;;;;;;9.40;8.43;;;;;;;;;;2078215;28;20160;-51
2021/08/07 05:12:10;;;;;;;6.25;5.70;;;;;;;;;;2074598;28;20216;-52
2021/08/07 05:13:15;;;;;;;6.15;5.65;;;;;;;;;;2075063;28;20165;-51
2021/08/07 05:14:15;;;;;;;5.57;4.90;;;;;;;;;;2072072;28;20216;-50
2021/08/07 05:15:15;;;;;;;9.57;8.35;;;;;;;;;;2071032;28;20264;-50
2021/08/07 05:16:17;;;;;;;6.55;5.97;;;;;;;;;;2082793;28;20245;-52
2021/08/07 05:17:17;;;;;;;5.88;5.38;;;;;;;;;;2082525;28;20615;-50
2021/08/07 05:18:18;;;;;;;5.07;4.68;;;;;;;;;;2072953;28;20323;-50
2021/08/07 05:19:18;;;;;;;5.35;4.60;;;;;;;;;;2066972;28;20162;-55
2021/08/07 05:20:18;;;;;;;5.60;5.22;;;;;;;;;;2086908;28;20183;-51
2021/08/07 05:21:18;;;;;;;5.00;4.60;;;;;;;;;;2082691;28;20225;-52
2021/08/07 05:22:20;;;;;;;4.70;4.28;;;;;;;;;;2074309;28;20179;-52
2021/08/07 05:23:23;;;;;;;5.07;4.68;;;;;;;;;;2069961;28;20209;-50
2021/08/07 05:24:23;;;;;;;4.53;4.13;;;;;;;;;;2071444;28;20287;-49
2021/08/07 05:25:24;;;;;;;5.10;4.60;;;;;;;;;;2074516;28;20212;-50
2021/08/07 05:26:26;;;;;;;5.00;4.15;;;;;;;;;;2069763;28;20197;-48
2021/08/07 05:27:27;;;;;;;4.07;3.88;;;;;;;;;;2064232;28;20176;-49
2021/08/07 05:28:29;;;;;;;4.97;3.97;;;;;;;;;;2066695;28;20657;-48
2021/08/07 05:29:30;;;;;;;4.88;4.28;;;;;;;;;;2065429;28;20181;-51
2021/08/07 05:30:30;;;;;;;4.78;4.35;;;;;;;;;;2068621;28;20185;-51
2021/08/07 05:31:34;;;;;;;3.90;3.70;;;;;;;;;;2072477;28;20268;-51
2021/08/07 05:32:34;;;;;;;4.38;4.07;;;;;;;;;;2073266;28;20204;-53
2021/08/07 05:33:35;;;;;;;6.53;5.72;;;;;;;;;;2082364;28;20168;-50
2021/08/07 05:34:35;;;;;;;4.45;4.00;;;;;;;;;;2074469;28;20192;-52
2021/08/07 05:35:36;;;;;;;4.47;4.18;;;;;;;;;;2065036;28;20200;-51
2021/08/07 05:36:36;;;;;;;4.45;4.15;;;;;;;;;;2072858;28;20192;-50
2021/08/07 05:37:38;;;;;;;3.90;3.60;;;;;;;;;;2082396;28;20201;-53
2021/08/07 05:38:39;;;;;;;4.38;3.97;;;;;;;;;;2066790;28;20223;-51
2021/08/07 05:39:40;;;;;;;5.82;4.47;;;;;;;;;;2066181;28;20193;-51
2021/08/07 05:40:40;;;;;;;4.75;4.28;;;;;;;;;;2065965;28;20213;-52
2021/08/07 05:41:40;;;;;;;4.82;4.43;;;;;;;;;;2065249;28;20192;-50
2021/08/07 05:42:42;;;;;;;6.55;4.63;;;;;;;;;;2066079;28;20537;-54
2021/08/07 05:43:42;;;;;;;4.68;4.28;;;;;;;;;;2061967;28;20204;-50
2021/08/07 05:44:43;;;;;;;5.03;4.47;;;;;;;;;;2073570;28;20176;-50
2021/08/07 05:45:44;;;;;;;5.65;4.80;;;;;;;;;;2074038;28;20177;-55
2021/08/07 05:46:44;;;;;;;4.35;3.85;;;;;;;;;;2074451;28;20227;-51
2021/08/07 05:47:44;;;;;;;4.63;3.90;;;;;;;;;;2066565;28;20794;-52
2021/08/07 05:48:45;;;;;;;4.70;4.38;;;;;;;;;;2073140;28;20177;-50
2021/08/07 05:49:45;;;;;;;4.40;4.05;;;;;;;;;;2082158;28;20183;-49
2021/08/07 05:50:48;;;;;;;4.65;4.28;;;;;;;;;;2065229;28;20173;-49
2021/08/07 05:51:48;;;;;;;5.63;4.40;;;;;;;;;;2072935;28;20181;-52
2021/08/07 05:52:49;;;;;;;4.72;4.43;;;;;;;;;;2073187;28;20591;-50
2021/08/07 05:53:52;;;;;;;5.20;4.68;;;;;;;;;;2072493;28;20177;-53
2021/08/07 05:54:57;;;;;;;4.88;4.47;;;;;;;;;;2073132;28;20181;-51
2021/08/07 05:55:59;;;;;;;5.07;4.68;;;;;;;;;;2068489;28;20209;-50
2021/08/07 05:56:59;;;;;;;4.80;4.40;;;;;;;;;;2082247;28;20161;-52
2021/08/07 05:58:02;;;;;;;4.70;4.40;;;;;;;;;;2072149;28;20263;-49
2021/08/07 05:59:03;;;;;;;4.50;4.18;;;;;;;;;;2073256;28;20181;-52
2021/08/07 06:00:04;;;;;;;5.28;4.55;;;;;;;;;;2072937;28;20338;-51
2021/08/07 06:01:17;;;;;;;5.90;4.63;;;;;;;;;;2066614;28;20757;-48
2021/08/07 06:02:18;;;;;;;5.32;4.88;;;;;;;;;;2077426;28;20203;-51
2021/08/07 06:03:19;;;;;;;5.15;4.75;;;;;;;;;;2082360;28;20270;-52
2021/08/07 06:04:22;;;;;;;5.20;4.20;;;;;;;;;;2072885;28;20173;-49
2021/08/07 06:05:23;;;;;;;4.78;4.40;;;;;;;;;;2072443;28;20168;-53
2021/08/07 06:06:23;;;;;;;4.65;4.30;;;;;;;;;;2071533;28;20205;-53
2021/08/07 06:07:24;;;;;;;6.80;4.57;;;;;;;;;;2064906;28;20182;-50
2021/08/07 06:08:24;;;;;;;4.60;4.30;;;;;;;;;;2065140;28;20615;-50
2021/08/07 06:09:25;;;;;;;4.90;4.50;;;;;;;;;;2065676;28;20266;-51
2021/08/07 06:10:26;;;;;;;4.53;3.80;;;;;;;;;;2073124;28;20180;-49
2021/08/07 06:11:28;;;;;;;3.85;3.60;;;;;;;;;;2069973;28;20772;-49
2021/08/07 06:12:29;;;;;;;4.65;4.30;;;;;;;;;;2071396;28;20256;-51
2021/08/07 06:13:29;;;;;;;4.30;3.83;;;;;;;;;;2071376;28;20304;-50
2021/08/07 06:14:29;;;;;;;4.40;4.00;;;;;;;;;;2078422;28;20185;-51
2021/08/07 06:15:30;;;;;;;5.88;3.72;;;;;;;;;;2071462;28;20780;-51
2021/08/07 06:16:30;;;;;;;4.20;3.90;;;;;;;;;;2073400;28;20280;-50
2021/08/07 06:17:31;;;;;;;3.90;3.60;;;;;;;;;;2071328;28;20173;-53
2021/08/07 06:18:31;;;;;;;3.97;3.45;;;;;;;;;;2063216;28;20268;-49